x

9418767 - North Spit, Ca (hbyc1) Weather Station

8:36am - Wed 23rd Jan 2019 All times are PST. -8 hours from GMT.

  • Wind
    7mph, 11mph gusts
  • Sea Temp 52°f
  • Air Temp 45°f
  • Sea Pressure 1032.5mb
  • 9418767 - North Spit, Ca
  • 9418767 - North Spit, Ca

More Historic Weather Station data

Upgrade to MSW Pro to gain access to the past 30 days of data for over 8000 Wavebouys and Weather Stations around the globe.

Join

Comparision Forecast

View Surf forecast
   
Wed 01/23 8:36am 7 11 mph 1032.5mb 52f 45f
8:30am 8 13 mph 1032.4mb 52f 45f
8:24am 7 8 mph 1032.4mb 52f 46f
8:18am 7 8 mph 1032.3mb 52f 44f
8:12am 6 8 mph 1032.5mb 52f 44f
8:06am 7 8 mph 1032.6mb 52f 43f
8:00am 7 9 mph 1032.4mb 52f 43f
7:36am 7 8 mph 1032.7mb 52f 42f
7:30am 7 8 mph 1032.7mb 52f 42f
7:24am 8 9 mph 1032.7mb 52f 42f
7:18am 7 9 mph 1032.6mb 52f 42f
7:12am 9 10 mph 1032.7mb 52f 43f
7:06am 9 9 mph 1032.7mb 52f 42f
7:00am 8 10 mph 1032.8mb 52f 42f
6:36am 1 2 mph 1032.8mb 52f 46f
6:30am  -  3 mph 1032.9mb 52f 46f
6:24am 2 3 mph 1032.8mb 53f 46f
6:18am 1 2 mph 1032.5mb 53f 45f
6:12am 1 2 mph 1032.4mb 53f 45f
6:06am 2 3 mph 1032.3mb 53f 45f
6:00am 2 3 mph 1032.2mb 53f 44f
5:36am 6 8 mph 1032.1mb 53f 44f
5:30am 5 6 mph 1032mb 53f 44f
5:24am 5 6 mph 1031.9mb 53f 45f
5:18am 6 7 mph 1031.9mb 53f 45f
5:12am 7 7 mph 1032mb 53f 46f
5:06am 6 6 mph 1031.9mb 53f 46f
5:00am 3 5 mph 1032mb 53f 46f
4:36am 5 5 mph 1032.2mb 53f 46f
4:30am 5 6 mph 1032.3mb 53f 46f
4:24am 5 6 mph 1032.4mb 53f 45f
4:18am 5 6 mph 1032.3mb 53f 45f
4:12am 5 5 mph - - 45f
4:06am 3 5 mph 1032.2mb 53f 46f
4:00am 5 6 mph 1032.2mb 53f 46f
3:36am 3 6 mph 1032.5mb 53f 46f
3:30am 2 2 mph 1032.4mb 53f 46f
3:24am 2 3 mph 1032.5mb 53f 46f
3:18am 2 3 mph 1032.7mb 53f 46f
3:12am 3 3 mph 1032.9mb 53f 46f
3:06am 2 3 mph 1032.8mb 53f 46f
3:00am 3 5 mph 1032.9mb 53f 45f
2:36am 3 5 mph 1033.3mb 53f 46f
2:30am 2 3 mph 1033.4mb 53f 46f
2:24am 2 3 mph 1033.4mb 53f 46f
2:18am 2 3 mph 1033.3mb 53f 47f
2:12am 3 6 mph 1033.3mb 53f 46f
2:06am 6 7 mph 1033.4mb 53f 46f
2:00am 6 7 mph 1033.4mb 53f 46f
1:36am  -  1 mph 1033.6mb 53f 46f
1:30am 1 3 mph 1033.6mb 53f 46f
1:24am 3 6 mph 1033.5mb 53f 45f
1:18am 6 7 mph 1033.5mb 53f 45f
1:12am 6 9 mph 1033.4mb 53f 44f
1:06am 9 10 mph 1033.5mb 53f 44f
1:00am 8 9 mph 1033.5mb 53f 44f
12:36am 5 6 mph 1033.6mb 53f 44f
12:30am 6 7 mph 1033.6mb 53f 44f
12:24am 7 7 mph 1033.6mb 53f 44f
12:18am 6 7 mph 1033.6mb 53f 44f
12:12am 6 6 mph 1033.5mb 53f 44f
12:06am 5 7 mph 1033.5mb 53f 44f
12:00am 6 7 mph 1033.5mb 53f 43f
Tue 01/22 11:36pm 6 7 mph 1033.5mb 53f 43f
11:30pm 6 6 mph 1033.5mb 53f 43f
11:24pm 5 5 mph 1033.5mb 53f 44f
11:18pm 3 5 mph 1033.4mb 53f 44f
11:12pm 5 6 mph 1033.3mb 53f 44f
11:06pm 3 5 mph 1033.2mb 53f 44f
11:00pm 2 3 mph 1033.1mb 53f 45f
10:36pm 5 5 mph 1032.9mb 53f 45f
10:30pm 3 5 mph 1032.9mb 53f 45f
10:24pm 3 5 mph 1032.9mb 53f 45f
10:18pm 5 5 mph 1032.8mb 53f 45f
10:12pm 2 3 mph 1032.9mb 53f 45f
10:06pm 3 3 mph 1032.8mb 53f 45f
10:00pm 2 3 mph 1032.8mb 53f 45f
9:36pm 5 5 mph 1032.8mb 53f 45f
9:30pm 3 5 mph 1032.8mb 53f 45f
9:24pm 3 5 mph 1032.8mb 53f 45f
9:18pm 3 5 mph 1032.7mb 53f 45f
9:12pm 5 6 mph 1032.7mb 53f 46f
9:06pm 6 6 mph 1032.5mb 53f 45f
9:00pm 6 7 mph 1032.6mb 53f 46f
8:36pm 5 6 mph 1032.8mb 52f 45f
8:30pm 3 5 mph 1032.8mb 52f 46f
8:24pm 3 5 mph 1032.8mb 52f 45f
8:18pm 5 6 mph 1032.8mb 52f 45f
8:12pm 3 5 mph 1032.7mb 52f 46f
8:06pm 3 5 mph 1032.7mb 52f 46f
8:00pm 3 3 mph 1032.7mb 52f 46f
7:36pm 2 2 mph 1032.3mb 53f 47f
7:30pm  -  1 mph 1032.3mb 53f 47f
7:24pm 1 2 mph 1032.4mb 53f 47f
7:18pm 2 5 mph 1032.2mb 53f 47f
7:12pm 5 6 mph 1032.1mb 53f 47f
7:06pm 6 7 mph 1032mb 53f 47f
7:00pm 6 7 mph 1032mb 53f 47f
6:36pm 5 6 mph 1031.9mb 53f 47f
6:30pm 5 6 mph 1031.9mb 53f 47f
6:24pm 5 6 mph 1032mb 53f 48f
6:18pm 6 6 mph 1032mb 53f 48f
6:12pm 5 6 mph 1032.1mb 53f 50f
6:06pm 6 6 mph 1032mb 53f 50f
6:00pm 6 6 mph 1032mb 53f 50f
5:36pm 5 6 mph 1031.8mb 53f 50f
5:30pm 6 6 mph 1031.9mb 53f 50f
5:24pm 6 6 mph 1031.9mb 53f 50f
5:18pm 5 6 mph 1031.8mb 53f 50f
5:12pm 5 6 mph 1031.7mb 53f 50f
5:06pm 6 6 mph 1031.7mb 53f 51f
5:00pm 6 6 mph 1031.7mb 53f 50f
4:36pm 7 8 mph 1031.9mb 54f 51f
4:30pm 7 8 mph 1032mb 54f 51f
4:24pm 7 8 mph 1031.9mb 54f 51f
4:18pm 8 9 mph 1032mb 53f 51f
4:12pm 7 8 mph 1032.2mb 53f 51f
4:06pm 8 8 mph 1032.2mb 53f 51f
4:00pm 8 9 mph 1032.2mb 53f 50f
3:36pm 10 13 mph 1032.6mb 53f 50f
3:30pm 10 11 mph 1032.6mb 53f 50f
3:24pm 10 11 mph 1032.6mb 53f 50f
3:18pm 10 13 mph 1032.7mb 53f 50f
3:12pm 9 10 mph 1032.6mb 53f 50f
3:06pm 9 10 mph 1032.6mb 53f 50f
3:00pm 9 10 mph 1032.6mb 53f 50f
2:36pm 9 9 mph 1032.3mb 54f 50f
2:30pm 8 9 mph 1032.2mb 54f 50f
2:24pm 9 11 mph 1032.3mb 54f 50f
2:18pm 10 11 mph 1032.3mb 54f 50f
2:12pm 9 11 mph 1032.4mb 54f 50f
2:06pm 10 11 mph 1032.4mb 54f 50f
2:00pm 8 9 mph 1032.4mb 54f 50f
1:36pm 5 6 mph 1032.4mb 54f 49f
1:30pm 5 6 mph 1032.5mb 54f 49f
1:24pm 3 5 mph 1032.5mb 54f 49f
1:18pm 2 3 mph 1032.4mb 54f 49f
1:12pm 2 2 mph 1032.5mb 54f 48f
1:06pm 2 3 mph 1032.5mb 54f 48f
1:00pm 3 3 mph 1032.5mb 54f 48f
12:36pm 3 5 mph 1032.7mb 53f 47f
12:30pm 3 5 mph 1032.8mb 53f 47f
12:24pm 3 5 mph 1032.9mb 53f 47f
12:18pm 3 3 mph 1032.8mb 53f 47f
12:12pm 3 5 mph 1032.9mb 53f 47f
12:06pm 2 3 mph 1032.9mb 53f 47f
12:00pm 2 2 mph 1032.9mb 53f 47f
11:36am 1 2 mph 1033.2mb 53f 47f
11:30am 1 2 mph 1033.3mb 53f 47f
11:24am 1 2 mph 1033.4mb 53f 47f
11:18am  -  2 mph 1033.5mb 53f 48f
11:12am 1 2 mph 1033.6mb 53f 48f
11:06am 2 3 mph 1033.7mb 53f 47f
11:00am 3 5 mph 1033.7mb 53f 47f
10:36am 3 5 mph 1033.5mb 54f 45f
10:30am 3 5 mph 1033.4mb 54f 45f
10:24am 2 3 mph 1033.4mb 54f 45f
10:18am 2 2 mph 1033.3mb 54f 45f
10:12am 2 2 mph 1033.3mb 54f 45f
10:06am 1 2 mph 1033.3mb 54f 45f
10:00am 1 2 mph 1033.2mb 54f 44f
9:36am 3 5 mph 1033.1mb 53f 44f
9:30am 2 3 mph 1033mb 53f 46f
9:24am 2 5 mph 1033mb 53f 45f
9:18am 3 5 mph 1033mb 53f 44f
9:12am 5 6 mph 1033.1mb 53f 44f
9:06am 5 6 mph 1033.1mb 53f 43f
9:00am 5 6 mph 1033.2mb 53f 43f
8:36am 5 6 mph 1033.1mb 53f 43f
8:30am 5 7 mph 1033mb 53f 42f
8:24am 6 8 mph 1032.9mb 53f 42f
8:18am 7 8 mph 1033mb 53f 41f
8:12am 7 9 mph 1033.1mb 53f 41f
8:06am 6 7 mph 1033.3mb 53f 41f
8:00am 5 7 mph 1033.2mb 53f 40f
7:36am 8 10 mph 1032.7mb 52f 39f
7:30am 8 10 mph 1032.7mb 52f 39f
7:24am 7 8 mph 1032.9mb 52f 40f
7:18am 8 9 mph 1032.8mb 52f 40f
7:12am 8 9 mph 1032.6mb 52f 40f
7:06am 8 9 mph 1032.6mb 52f 40f
7:00am 7 8 mph 1032.7mb 52f 40f
6:36am 5 7 mph 1032.4mb 52f 40f
6:30am 6 8 mph 1032.3mb 52f 40f
6:24am 6 7 mph 1032.2mb 52f 40f
6:18am 6 8 mph 1032.1mb 52f 40f
6:12am 7 8 mph 1032.1mb 52f 40f
6:06am 7 7 mph 1032.2mb 52f 41f
6:00am 5 6 mph 1032.1mb 52f 41f
5:36am 5 6 mph 1031.8mb 52f 41f
5:30am 3 7 mph 1032mb 52f 41f
5:24am 7 9 mph 1031.8mb 52f 40f
5:18am 7 8 mph 1031.8mb 52f 40f
5:12am 7 9 mph 1031.8mb 52f 40f
5:06am 9 10 mph 1031.9mb 52f 40f
5:00am 8 9 mph 1032.3mb 52f 40f
4:36am 7 8 mph 1031.9mb 52f 42f
4:30am 6 7 mph 1032.1mb 52f 42f
4:24am 5 6 mph 1032.1mb 52f 42f
4:18am 6 7 mph 1031.9mb 52f 42f
4:12am 6 7 mph 1032mb 52f 41f
4:06am 6 8 mph 1032.2mb 52f 41f
4:00am 8 9 mph 1032.1mb 52f 41f
3:36am 3 5 mph 1031.7mb 52f 42f
3:30am 3 5 mph 1031.7mb 53f 42f
3:24am 5 7 mph 1031.6mb 53f 43f
3:18am 7 8 mph 1031.6mb 53f 43f
3:12am 7 8 mph 1031.7mb 53f 43f
3:06am 6 7 mph 1031.8mb 53f 43f
3:00am 3 5 mph 1031.9mb 53f 44f
2:36am 2 3 mph 1032.2mb 53f 44f
2:30am 2 2 mph 1032.2mb 53f 44f
2:24am 3 5 mph 1032mb 53f 44f
2:18am 3 5 mph 1032.1mb 53f 44f
2:12am 1 3 mph 1032.1mb 54f 44f
2:06am 3 5 mph 1032.1mb 54f 44f
2:00am 5 7 mph 1031.9mb 54f 44f
1:36am 5 6 mph 1031.9mb 54f 43f
1:30am 5 6 mph 1031.9mb 54f 42f
1:24am 3 5 mph 1031.9mb 54f 43f
1:18am 5 6 mph 1031.8mb 54f 43f
1:12am 6 6 mph 1031.8mb 54f 43f
1:06am 5 6 mph 1031.8mb 54f 43f
1:00am 3 5 mph 1031.9mb 54f 44f
12:36am 5 6 mph 1031.9mb 54f 44f
12:30am 6 6 mph 1032mb 54f 44f
12:24am 6 6 mph 1031.9mb 54f 44f
12:18am 5 5 mph 1031.8mb 54f 44f
12:12am 5 6 mph 1031.7mb 54f 44f
12:06am 7 7 mph 1031.6mb 54f 43f
12:00am 6 6 mph 1031.7mb 54f 44f
Mon 01/21 11:36pm 6 7 mph 1031.3mb 54f 44f
11:30pm 6 6 mph 1031.3mb 54f 44f
11:24pm 5 6 mph 1031.3mb 54f 45f
11:18pm 3 3 mph 1031.3mb 54f 45f
11:12pm 3 5 mph 1031.3mb 54f 45f
11:06pm 3 5 mph 1031.3mb 54f 45f
11:00pm 3 5 mph 1031.2mb 54f 46f
10:36pm 1 2 mph 1031.1mb 54f 47f
10:30pm 1 2 mph 1031.1mb 54f 46f
10:24pm  -  2 mph 1031mb 54f 46f
10:18pm 2 2 mph 1031.1mb 54f 46f
10:12pm 2 3 mph 1031.1mb 54f 46f
10:06pm 2 3 mph 1031.1mb 53f 46f
10:00pm 3 6 mph 1031mb 53f 46f
9:36pm 6 8 mph 1031mb 53f 46f
9:30pm 6 7 mph 1031mb 53f 46f
9:24pm 5 6 mph 1031mb 53f 47f
9:18pm 5 6 mph 1031.1mb 53f 47f
9:12pm 5 7 mph 1031.1mb 53f 47f
9:06pm 6 7 mph 1031mb 53f 47f
9:00pm 6 7 mph 1031.1mb 53f 47f
8:36pm 6 7 mph 1031.1mb 53f 48f
8:30pm 3 7 mph 1031.2mb 53f 47f
8:24pm 6 9 mph 1031.2mb 53f 48f
8:18pm 6 11 mph 1031.1mb 53f 48f
8:12pm 8 15 mph 1031.1mb 53f 49f
8:06pm 10 16 mph 1031.1mb 53f 49f
8:00pm 8 11 mph 1031mb 53f 49f
7:36pm 6 7 mph 1030.8mb 52f 49f
7:30pm 6 11 mph 1030.7mb 52f 49f
7:24pm 9 17 mph 1030.6mb 52f 49f
7:18pm 6 8 mph 1030.4mb 52f 49f
7:12pm 9 16 mph 1030.3mb 52f 49f
7:06pm 10 18 mph 1030.3mb 52f 49f
7:00pm 10 22 mph 1030.3mb 53f 50f
6:36pm 23 25 mph 1030.1mb 53f 51f
6:30pm 23 24 mph 1030mb 53f 51f
6:24pm 22 25 mph 1029.9mb 53f 51f
6:18pm 21 24 mph 1029.9mb 53f 51f
6:12pm 23 26 mph 1029.8mb 53f 51f
6:06pm 24 26 mph 1029.7mb 53f 51f
6:00pm 23 25 mph 1029.7mb 53f 51f
5:36pm 25 26 mph 1029.6mb 53f 51f
5:30pm 23 25 mph 1029.5mb 53f 51f
5:24pm 22 25 mph 1029.4mb 53f 51f
5:18pm 23 26 mph 1029.4mb 53f 51f
5:12pm 23 25 mph 1029.2mb 53f 51f
5:06pm 23 26 mph 1029.2mb 53f 51f
5:00pm 22 24 mph 1029.1mb 53f 51f
4:36pm 23 25 mph 1028.8mb 54f 51f
4:30pm 24 26 mph 1028.7mb 54f 51f
4:24pm 22 24 mph 1028.8mb 54f 51f
4:18pm 23 25 mph 1028.8mb 54f 51f
4:12pm 22 24 mph 1028.8mb 54f 51f
4:06pm 22 24 mph 1028.9mb 54f 51f
4:00pm 23 25 mph 1028.8mb 54f 51f
3:36pm 22 24 mph 1028.6mb 54f 51f
3:30pm 21 23 mph 1028.5mb 54f 51f
3:24pm 21 23 mph 1028.3mb 54f 51f
3:18pm 21 23 mph 1028.3mb 54f 50f
3:12pm 22 23 mph 1028.3mb 54f 50f
3:06pm 21 23 mph 1028.2mb 54f 50f
3:00pm 20 22 mph 1028.1mb 54f 50f
2:36pm 18 21 mph 1027.8mb 54f 50f
2:30pm 18 21 mph 1027.8mb 54f 50f
2:24pm 18 21 mph 1027.7mb 54f 50f
2:18pm 20 22 mph 1027.7mb 54f 50f
2:12pm 18 21 mph 1027.7mb 54f 50f
2:06pm 17 20 mph 1027.7mb 54f 49f
2:00pm 15 20 mph 1027.8mb 54f 49f
1:36pm 14 16 mph 1027.9mb 54f 49f
1:30pm 15 16 mph 1028.1mb 54f 49f
1:24pm 14 16 mph 1028.1mb 54f 49f
1:18pm 13 16 mph 1028.3mb 54f 49f
1:12pm 13 15 mph 1028.2mb 54f 49f
1:06pm 13 15 mph 1028.2mb 54f 49f
1:00pm 13 14 mph 1028.3mb 54f 49f
12:36pm 10 13 mph 1028.2mb 54f 49f
12:30pm 9 13 mph 1028.1mb 54f 49f
12:24pm 8 10 mph 1028.1mb 54f 48f
12:18pm 7 9 mph 1028mb 54f 48f
12:12pm 6 7 mph 1027.9mb 54f 48f
12:06pm 6 6 mph 1027.8mb 54f 48f
12:00pm 7 9 mph 1027.9mb 54f 48f
11:36am 6 7 mph 1027.8mb 54f 48f
11:30am 5 6 mph 1027.9mb 54f 48f
11:24am 5 6 mph 1027.9mb 54f 48f
11:18am 3 6 mph 1027.8mb 54f 48f
11:12am 1 3 mph 1027.8mb 54f 49f
11:06am 2 3 mph 1027.9mb 54f 48f
11:00am 3 5 mph 1027.8mb 54f 48f
10:36am  -  2 mph 1027.1mb 54f 48f
10:30am 1 2 mph 1027.1mb 54f 48f
10:24am 1 2 mph 1027mb 54f 49f
10:18am 1 2 mph 1026.8mb 54f 49f
10:12am  -  2 mph 1026.7mb 54f 49f
10:06am  -  2 mph 1026.6mb 54f 49f
10:00am 2 3 mph 1026.4mb 54f 48f
9:36am 1 2 mph 1026.1mb 54f 48f
9:30am  -  2 mph 1025.9mb 54f 49f
9:24am 2 3 mph 1025.9mb 54f 48f
9:18am 2 3 mph 1025.7mb 54f 48f
9:12am 2 3 mph 1025.5mb 54f 47f
9:06am  -  2 mph 1025.4mb 54f 47f
9:00am 2 2 mph 1025.4mb 54f 47f
8:36am 2 5 mph 1024.8mb 53f 46f
8:30am 2 5 mph 1024.7mb 53f 46f
8:24am 5 6 mph 1024.5mb 53f 46f
8:18am 5 7 mph 1024.4mb 53f 45f
8:12am 6 7 mph 1024.2mb 53f 45f
8:06am 5 7 mph 1024.1mb 53f 45f
8:00am 5 6 mph 1024mb 53f 45f
7:36am 5 6 mph 1023.8mb 53f 44f
7:30am 3 5 mph 1023.8mb 53f 44f
7:24am 3 5 mph 1023.7mb 53f 45f
7:18am 3 5 mph 1023.6mb 53f 45f
7:12am 3 5 mph 1023.5mb 53f 45f
7:06am 3 5 mph 1023.4mb 53f 45f
7:00am 2 3 mph 1023.3mb 53f 45f
6:36am 5 6 mph 1022.8mb 53f 45f
6:30am 5 6 mph 1022.7mb 53f 44f
6:24am 5 6 mph 1022.5mb 53f 44f
6:18am 5 6 mph 1022.3mb 53f 44f
6:12am 5 6 mph 1022.3mb 53f 44f
6:06am 6 7 mph 1022.2mb 53f 44f
6:00am 6 7 mph 1022.1mb 53f 44f
5:36am 6 7 mph 1022mb 53f 44f
5:30am 5 7 mph 1022mb 53f 44f
5:24am 5 6 mph 1021.9mb 53f 44f
5:18am 5 6 mph 1021.9mb 53f 44f
5:12am 5 6 mph 1021.8mb 53f 44f
5:06am 3 6 mph 1021.7mb 53f 44f
5:00am 3 6 mph 1021.7mb 53f 44f
4:36am 6 7 mph 1021.4mb 53f 44f
4:30am 5 6 mph 1021.3mb 53f 43f
4:24am 5 6 mph 1021.2mb 53f 43f
4:18am 5 7 mph 1021.1mb 53f 43f
4:12am 7 8 mph 1021mb 53f 43f
4:06am 7 8 mph 1021mb 53f 43f
4:00am 6 8 mph 1021.1mb 53f 43f
3:36am 6 7 mph 1020.7mb 53f 44f
3:30am 7 7 mph 1020.7mb 53f 44f
3:24am 5 7 mph 1020.7mb 53f 44f
3:18am 6 7 mph 1020.6mb 53f 44f
3:12am 6 7 mph 1020.6mb 53f 44f
3:06am 3 5 mph 1020.4mb 53f 45f
3:00am 2 5 mph 1020.3mb 53f 46f
2:36am 5 6 mph 1020.1mb 53f 45f
2:30am 6 6 mph 1019.9mb 53f 45f
2:24am 6 7 mph 1019.9mb 53f 45f
2:18am 6 7 mph 1019.7mb 53f 46f
2:12am 6 7 mph 1019.8mb 53f 45f
2:06am 6 7 mph 1019.7mb 53f 45f
2:00am 5 6 mph 1019.5mb 53f 45f
1:36am 8 10 mph 1019mb 54f 44f
1:30am 8 9 mph 1019mb 54f 45f
1:24am 8 9 mph 1019.1mb 54f 44f
1:18am 6 8 mph 1019mb 54f 45f
1:12am 6 7 mph 1018.9mb 54f 45f
1:06am 6 7 mph 1018.9mb 54f 45f
1:00am 6 7 mph 1018.9mb 54f 45f
12:36am 6 8 mph 1018.7mb 54f 44f
12:30am 6 7 mph 1018.7mb 54f 44f
12:24am 7 9 mph 1018.6mb 54f 44f
12:18am 7 9 mph 1018.5mb 54f 44f
12:12am 7 8 mph 1018.4mb 54f 44f
12:06am 6 7 mph 1018.4mb 54f 44f
12:00am 6 8 mph 1018.3mb 54f 45f
Sun 01/20 11:36pm 8 10 mph 1018.1mb 54f 44f
11:30pm 9 11 mph 1018.1mb 54f 44f
11:24pm 9 10 mph 1018mb 54f 44f
11:18pm 8 10 mph 1018mb 54f 44f
11:12pm 9 10 mph 1017.9mb 54f 44f
11:06pm 8 10 mph 1018mb 54f 44f
11:00pm 6 7 mph 1017.9mb 54f 44f
10:36pm 8 9 mph 1017.3mb 54f 44f
10:30pm 8 9 mph 1017.3mb 54f 44f
10:24pm 8 9 mph 1017.3mb 54f 44f
10:18pm 7 10 mph 1017.2mb 54f 44f
10:12pm 9 11 mph 1017.2mb 54f 44f
10:06pm 11 11 mph 1017mb 54f 44f
10:00pm 9 11 mph 1016.9mb 54f 45f
9:36pm 6 9 mph 1016.1mb 53f 44f
9:30pm 7 8 mph 1016.1mb 53f 44f
9:24pm 7 8 mph 1016.1mb 53f 45f
9:18pm 7 8 mph 1016mb 53f 45f
9:12pm 6 7 mph 1016mb 53f 45f
9:06pm 5 7 mph 1015.8mb 53f 45f
9:00pm 6 7 mph 1015.8mb 53f 45f
8:36pm 7 9 mph 1015.2mb 53f 45f
8:30pm 7 8 mph 1015.4mb 53f 45f
8:24pm 5 7 mph 1015.3mb 53f 45f
8:18pm 5 7 mph 1015.2mb 53f 45f
8:12pm 8 8 mph 1015.1mb 53f 45f
8:06pm 7 8 mph 1014.9mb 53f 45f
8:00pm 6 7 mph 1014.9mb 53f 45f
7:36pm 9 11 mph 1014.5mb 53f 45f
7:30pm 11 20 mph 1014.5mb 53f 45f
7:24pm 14 18 mph 1014.4mb 53f 46f
7:18pm 15 22 mph 1014.2mb 53f 46f
7:12pm 16 20 mph 1014.1mb 53f 46f
7:06pm 18 20 mph 1014.1mb 53f 45f
7:00pm 17 23 mph 1014mb 53f 45f
6:36pm 10 13 mph 1013.7mb 53f 47f
6:30pm 8 14 mph 1013.6mb 53f 47f
6:24pm 8 13 mph 1013.5mb 53f 47f
6:18pm 7 13 mph 1013.5mb 53f 47f
6:12pm 8 11 mph 1013.5mb 53f 47f
6:06pm 6 9 mph 1013.5mb 53f 47f
6:00pm 6 8 mph 1013.5mb 53f 47f
5:36pm 7 10 mph 1013.5mb 53f 47f
5:30pm 8 11 mph 1013.5mb 53f 47f
5:24pm 8 11 mph 1013.5mb 53f 47f
5:18pm 7 11 mph 1013.4mb 53f 47f
5:12pm 8 9 mph 1013.4mb 53f 47f
5:06pm 9 9 mph 1013.4mb 53f 47f
5:00pm 8 10 mph 1013.3mb 53f 47f
4:36pm 10 11 mph 1013.3mb 54f 47f
4:30pm 10 14 mph 1013.3mb 54f 47f
4:24pm 8 11 mph 1013.4mb 54f 47f
4:18pm 10 14 mph 1013.4mb 54f 47f
4:12pm 10 14 mph 1013.5mb 54f 47f
4:06pm 13 16 mph 1013.6mb 54f 47f
4:00pm 15 18 mph 1013.6mb 54f 47f
3:36pm 22 29 mph 1013.7mb 54f 47f
3:30pm 21 28 mph 1013.7mb 54f 47f
3:24pm 17 18 mph 1013.6mb 54f 47f
3:18pm 17 25 mph 1013.6mb 54f 47f
3:12pm 22 25 mph 1013.6mb 54f 47f
3:06pm 18 22 mph 1013.6mb 54f 48f
3:00pm 16 20 mph 1013.5mb 54f 48f
2:36pm 15 17 mph 1013.2mb 54f 47f
2:30pm 13 18 mph 1013.3mb 54f 47f
2:24pm 11 17 mph 1013mb 54f 49f
2:18pm 6 7 mph 1013.1mb 54f 49f
2:12pm 6 8 mph 1013.2mb 54f 49f
2:06pm 5 7 mph 1013.5mb 54f 49f
2:00pm 5 8 mph 1013.6mb 54f 50f
1:36pm 6 7 mph 1014mb 54f 49f
1:30pm 6 8 mph 1014.2mb 54f 49f
1:24pm 7 11 mph 1014.2mb 54f 49f
1:18pm 9 11 mph 1014.2mb 54f 48f
1:12pm 9 11 mph 1014.5mb 54f 48f
1:06pm 8 14 mph 1014.6mb 54f 48f
1:00pm 11 15 mph 1014.6mb 54f 48f
12:36pm 20 21 mph 1014.8mb 54f 49f
12:30pm 20 24 mph 1015mb 54f 49f
12:24pm 24 28 mph 1015mb 54f 48f
12:18pm 26 30 mph 1014.9mb 54f 48f
12:12pm 14 21 mph 1015.1mb 54f 50f
12:06pm 17 24 mph 1015.3mb 54f 51f
12:00pm 15 22 mph 1015.3mb 54f 51f
11:36am 16 22 mph 1015.4mb 54f 51f
11:30am 13 21 mph 1015.3mb 54f 51f
11:24am 15 23 mph 1015.5mb 54f 50f
11:18am 18 24 mph 1015.6mb 54f 50f
11:12am 18 24 mph 1015.7mb 54f 50f
11:06am 20 25 mph 1015.8mb 54f 50f
11:00am 23 26 mph 1015.8mb 54f 49f
10:36am 13 16 mph 1015.6mb 54f 50f
10:30am 9 11 mph 1015.7mb 54f 49f
10:24am 5 6 mph 1015.7mb 54f 49f
10:18am 5 7 mph 1015.7mb 54f 49f
10:12am 2 3 mph 1015.7mb 54f 49f
10:06am 3 6 mph 1015.7mb 54f 49f
10:00am 5 6 mph 1015.8mb 54f 49f
9:36am 1 2 mph 1015.9mb 54f 50f
9:30am  -  2 mph 1016mb 54f 50f
9:24am 2 3 mph 1016.2mb 54f 50f
9:18am 2 5 mph 1016.2mb 54f 50f
9:12am 5 6 mph 1016.2mb 54f 50f
9:06am 6 8 mph 1016.3mb 54f 50f
9:00am 7 8 mph 1016.4mb 54f 50f
8:36am 9 14 mph 1016.4mb 54f 51f
8:30am 6 8 mph 1016.5mb 54f 52f
8:24am 6 7 mph 1016.4mb 54f 52f
8:18am 7 9 mph 1016.4mb 54f 52f
8:12am 9 11 mph 1016.6mb 54f 52f
8:06am 9 11 mph 1016.6mb 54f 52f
8:00am 10 13 mph 1016.5mb 54f 52f
7:36am 11 14 mph 1016.6mb 54f 52f
7:30am 10 13 mph 1016.7mb 54f 51f
7:24am 13 14 mph 1016.5mb 54f 51f
7:18am 14 16 mph 1016.6mb 54f 52f
7:12am 14 15 mph 1016.5mb 54f 52f
7:06am 11 15 mph 1016.5mb 54f 52f
7:00am 10 14 mph 1016.3mb 54f 52f
6:36am 13 15 mph 1016.4mb 54f 50f
6:30am 13 15 mph 1016.5mb 54f 50f
6:24am 13 14 mph 1016.5mb 54f 50f
6:18am 11 14 mph 1016.4mb 54f 50f
6:12am 8 11 mph 1016.5mb 54f 50f
6:06am 11 14 mph 1016.4mb 54f 49f
6:00am 13 15 mph 1016.2mb 54f 50f
5:36am 9 16 mph 1016mb 53f 50f
5:30am 15 17 mph 1016.1mb 54f 50f
5:24am 13 15 mph 1016mb 54f 49f
5:18am 10 14 mph 1016mb 54f 49f
5:12am 10 15 mph 1015.8mb 54f 49f
5:06am 9 15 mph 1015.7mb 54f 49f
5:00am 10 14 mph 1015.7mb 54f 49f
4:36am 14 17 mph 1015.6mb 54f 49f
4:30am 11 14 mph 1016.1mb 54f 49f
4:24am 8 9 mph 1016.6mb 54f 49f
4:18am 7 8 mph 1016.7mb 54f 49f
4:12am 7 9 mph 1016.8mb 54f 49f
4:06am 7 8 mph 1017mb 54f 49f
4:00am 7 8 mph 1017.2mb 54f 49f
3:36am 8 9 mph 1016.8mb 54f 49f
3:30am 8 11 mph 1016.7mb 54f 49f
3:24am 11 13 mph 1016.6mb 54f 49f
3:18am 11 16 mph 1016.5mb 54f 49f
3:12am 14 15 mph 1016.3mb 54f 50f
3:06am 14 20 mph 1016.2mb 54f 50f
3:00am 16 18 mph 1015.8mb 54f 50f
2:36am 24 33 mph 1016mb 54f 50f
2:30am 32 47 mph 1015.6mb 54f 50f
2:24am 31 41 mph 1014.6mb 54f 53f
2:18am 24 28 mph 1013.7mb 54f 55f
2:12am 20 23 mph 1013.5mb 54f 56f
2:06am 21 25 mph 1013.3mb 54f 56f
2:00am 21 24 mph 1013.3mb 54f 56f
1:36am 18 22 mph 1013.6mb 54f 56f
1:30am 20 24 mph 1013.7mb 54f 56f
1:24am 22 25 mph 1013.7mb 54f 58f
1:18am 21 24 mph 1013.7mb 54f 57f
1:12am 23 26 mph 1013.7mb 54f 58f
1:06am 20 26 mph 1013.6mb 54f 58f
1:00am 20 25 mph 1013.7mb 54f 58f
12:36am 21 24 mph 1014.2mb 54f 58f
12:30am 20 22 mph 1014.4mb 54f 58f
12:24am 13 17 mph 1014.6mb 54f 57f
12:18am 15 16 mph 1014.9mb 54f 57f
12:12am 14 17 mph 1015.2mb 54f 57f
12:06am 15 18 mph 1015.4mb 54f 57f
12:00am 14 18 mph 1015.6mb 54f 56f
Sat 01/19 11:36pm 10 13 mph 1016.3mb 54f 55f
11:30pm 10 13 mph 1016.4mb 54f 56f
11:24pm 11 14 mph 1016.3mb 54f 56f
11:18pm 14 15 mph 1016.5mb 54f 56f
11:12pm 10 11 mph 1016.7mb 54f 55f
11:06pm 10 13 mph 1016.8mb 54f 56f
11:00pm 10 13 mph 1016.9mb 54f 56f
10:36pm 13 16 mph 1016.8mb 54f 56f
10:30pm 10 14 mph 1017mb 54f 56f
10:24pm 9 11 mph 1017.1mb 54f 57f
10:18pm 8 10 mph 1017.3mb 54f 57f
10:12pm 9 10 mph 1017.3mb 54f 57f
10:06pm 9 11 mph 1017.2mb 54f 57f
10:00pm 10 14 mph 1017.4mb 54f 57f
9:36pm 10 14 mph 1017.6mb 54f 57f
9:30pm 13 15 mph 1017.7mb 54f 57f
9:24pm 13 14 mph 1017.7mb 54f 57f
9:18pm 11 14 mph 1017.7mb 54f 57f
9:12pm 13 15 mph 1017.7mb 54f 57f
9:06pm 14 15 mph 1017.8mb 54f 57f
9:00pm 14 15 mph 1017.9mb 54f 56f
8:36pm 13 15 mph 1018.3mb 53f 57f
8:30pm 13 15 mph 1018.3mb 53f 57f
8:24pm 14 15 mph 1018.2mb 53f 57f
8:18pm 11 13 mph 1018.6mb 53f 56f
8:12pm 11 13 mph 1018.6mb 53f 56f
8:06pm 10 13 mph 1018.7mb 53f 56f
8:00pm 10 11 mph 1018.7mb 53f 56f
7:36pm 13 14 mph 1019mb 53f 57f
7:30pm 11 14 mph 1019mb 53f 56f
7:24pm 11 14 mph 1019mb 53f 56f
7:18pm 11 13 mph 1019mb 53f 56f
7:12pm 11 13 mph 1019.1mb 53f 56f
7:06pm 10 13 mph 1019.2mb 53f 57f
7:00pm 11 13 mph 1019.3mb 53f 56f
6:36pm 9 10 mph 1019.6mb 53f 56f
6:30pm 10 11 mph 1019.8mb 53f 56f
6:24pm 11 13 mph 1019.6mb 53f 56f
6:18pm 11 13 mph 1019.7mb 53f 56f
6:12pm 11 14 mph 1019.8mb 53f 56f
6:06pm 11 14 mph 1020mb 53f 56f
6:00pm 14 16 mph 1020.1mb 53f 56f